HSNN

Nyala Airport

Nyala, Sudan
METAR HSNN 191900Z 00000KT CAVOK 27/08 Q1011
Observed Flight Rules
Oct-19 @ 19:00 UTC (52 minutes ago) Visual Flight Rules
Visibility Clouds
10,000+ meters
  • Clear skies
Temperatures Readings
Current 27°C / 81°F
Dewpoint 8°C / 46°F
Humidity 30%
Altimeter 29.85" Hg
Pressure 1011 hPa
Elevation 658
METAR HSNN 191900Z 00000KT CAVOK 27/08 Q1011
Observed Flight Rules
Oct-19 @ 19:00 UTC
(52 minutes ago)
VFR
Clouds
  • Clear skies
Temperature Dewpoint
27°C / 81°F 8°C / 46°F
Humidity Altimeter Pressure
30% 29.85" Hg 1011 hPa